Lady Ann Magee — 9HA2775 — position and weather

sailwx.info

Track history (hours):
 
Tides and Currents Weather Stations Pressure Air Temp Water Temp Dewpoint Dewpoint Depression Visibility Wind Speed Wind Dir Waves Ship Positions

Lady Ann Magee

Last reported at 2015-Jul-05 17:24 UTC. Time now 2015-Jul-05 23:17 UTC.
Position N 43°44' E 007°25'.

Length 50 m; draft 3.4 m.

Type: Ship. MMSI: 215660000.

Date/timePositionNaut miles runAvg speedWind from/ knotsBaromVisibWave heightAir tempDewpointWater temp
2015-Jul-05 17:24N 43°44' E 007°25'0 0.0
2015-Jul-05 13:06N 43°44' E 007°25'0 0.0
2015-Jul-05 12:24N 43°44' E 007°25'0 0.0
2015-Jul-05 11:12N 43°44' E 007°25'4 0.1
2015-Jul-04 04:33N 43°41' E 007°23'1312.8
2015-Jul-04 03:33N 43°34' E 007°09'0 0.1
2015-Jul-04 02:27N 43°34' E 007°08'0 0.0
2015-Jul-04 01:33N 43°34' E 007°08'0 0.0
2015-Jul-04 00:33N 43°34' E 007°08'0 0.0
2015-Jul-03 23:21N 43°34' E 007°08'0 0.0
2015-Jul-03 22:33N 43°34' E 007°08'0 0.0
2015-Jul-03 21:33N 43°34' E 007°08'0 0.0
2015-Jul-03 20:33N 43°34' E 007°08'0 0.0
2015-Jul-03 19:33N 43°34' E 007°08'0 0.0
2015-Jul-03 18:33N 43°34' E 007°08'0 0.0
2015-Jul-03 17:33N 43°34' E 007°08'2 1.8
2015-Jul-03 16:34N 43°35' E 007°08'0 0.0
2015-Jul-03 15:33N 43°35' E 007°08'0 0.0
2015-Jul-03 14:33N 43°35' E 007°08'0 0.0
2015-Jul-03 13:33N 43°35' E 007°08'0 0.0
2015-Jul-03 12:33N 43°35' E 007°08'0 0.0
2015-Jul-03 11:33N 43°35' E 007°08'0 0.0
2015-Jul-03 10:33N 43°35' E 007°08'3 3.4
2015-Jul-03 09:33N 43°38' E 007°10'1 0.8
2015-Jul-03 08:30N 43°39' E 007°11'0 0.0
2015-Jul-03 07:24N 43°39' E 007°11'0 0.0
2015-Jul-03 06:18N 43°39' E 007°11'2 2.3
2015-Jul-03 05:33N 43°37' E 007°11'1312.7
2015-Jul-03 04:33N 43°29' E 007°24'1312.7
2015-Jul-03 03:33N 43°20' E 007°37'1312.7
2015-Jul-03 02:33N 43°12' E 007°50'1312.8
2015-Jul-03 01:33N 43°03' E 008°03'1312.6
2015-Jul-03 00:33N 42°55' E 008°16'1212.4
2015-Jul-02 23:33N 42°47' E 008°30'1212.3
2015-Jul-02 22:33N 42°38' E 008°41'6 5.9
2015-Jul-02 21:33N 42°34' E 008°46'0 0.0
2015-Jul-02 20:33N 42°34' E 008°46'0 0.0
2015-Jul-02 19:33N 42°34' E 008°46'0 0.0
2015-Jul-02 15:24N 42°34' E 008°46'8 9.9
2015-Jul-02 14:33N 42°29' E 008°37'17 3.4
2015-Jul-02 09:33N 42°13' E 008°31'1514.5
2015-Jul-02 08:33N 41°58' E 008°31'101 3.7
2015-Jul-01 05:17N 41°03' E 010°25'5414.5
2015-Jul-01 01:33N 40°55' E 011°35'8014.5
2015-Jun-30 20:03N 40°43' E 013°20'714.5
2015-Jun-30 19:33N 40°44' E 013°29'1514.4
2015-Jun-30 18:33N 40°46' E 013°49'4 3.5
2015-Jun-30 17:30N 40°45' E 013°53'0 0.0
2015-Jun-30 16:30N 40°45' E 013°53'0 0.0
2015-Jun-30 15:30N 40°45' E 013°53'0 0.0
2015-Jun-30 14:30N 40°45' E 013°53'0 0.0
2015-Jun-30 13:30N 40°45' E 013°53'0 0.0
2015-Jun-30 12:30N 40°45' E 013°53'0 0.0
2015-Jun-30 11:21N 40°45' E 013°53'0 0.0
2015-Jun-30 10:30N 40°45' E 013°53'0 0.0
2015-Jun-30 09:30N 40°45' E 013°53'0 0.0
2015-Jun-30 08:33N 40°45' E 013°53'5 5.1
2015-Jun-30 07:33N 40°44' E 013°60'1414.4
2015-Jun-30 06:33N 40°36' E 014°15'9 0.5
2015-Jun-29 12:28N 40°35' E 014°27'9 0.6
2015-Jun-28 21:31N 40°33' E 014°15'0 0.0
2015-Jun-28 20:28N 40°33' E 014°15'0 0.0
2015-Jun-28 18:31N 40°33' E 014°15'0 0.0
2015-Jun-28 16:13N 40°33' E 014°15'0 0.2
2015-Jun-28 15:33N 40°33' E 014°15'1110.1
2015-Jun-28 14:31N 40°35' E 014°28'1 0.3
2015-Jun-28 09:30N 40°35' E 014°30'8 8.3
2015-Jun-28 08:32N 40°38' E 014°21'2 2.0
2015-Jun-28 07:31N 40°38' E 014°23'0 0.0
2015-Jun-28 04:31N 40°38' E 014°23'0 0.0
2015-Jun-28 00:22N 40°38' E 014°23'0 0.0
2015-Jun-27 23:28N 40°38' E 014°23'0 0.0
2015-Jun-27 22:22N 40°38' E 014°23'0 0.0
2015-Jun-27 20:25N 40°38' E 014°23'0 0.0
2015-Jun-27 18:31N 40°38' E 014°23'0 0.0
2015-Jun-27 14:31N 40°38' E 014°23'0 0.0
2015-Jun-27 13:10N 40°38' E 014°23'0 0.0
2015-Jun-27 12:31N 40°38' E 014°23'2 1.9
2015-Jun-27 11:33N 40°40' E 014°23'182 5.4
2015-Jun-26 01:33N 42°11' E 010°52'2014.1
2015-Jun-26 00:08N 42°24' E 010°32'1113.9
2015-Jun-25 23:20N 42°31' E 010°20'1213.9
2015-Jun-25 22:28N 42°39' E 010°07'1314.2
2015-Jun-25 21:33N 42°46' E 009°53'1514.2
2015-Jun-25 20:31N 42°56' E 009°37'1313.1
2015-Jun-25 19:33N 43°01' E 009°22'  
Track history (hours):
 
Tides and Currents Weather Stations Pressure Air Temp Water Temp Dewpoint Dewpoint Depression Visibility Wind Speed Wind Dir Waves Ship Positions

Lady Ann Magee

Last reported at 2015-Jul-05 17:24 UTC. Time now 2015-Jul-05 23:17 UTC.
Position N 43°44' E 007°25'.

Length 50 m; draft 3.4 m.

Type: Ship. MMSI: 215660000.

Date/timePositionNaut miles runAvg speedWind from/ knotsBaromVisibWave heightAir tempDewpointWater temp
2015-Jul-05 17:24N 43°44' E 007°25'0 0.0
2015-Jul-05 13:06N 43°44' E 007°25'0 0.0
2015-Jul-05 12:24N 43°44' E 007°25'0 0.0
2015-Jul-05 11:12N 43°44' E 007°25'4 0.1
2015-Jul-04 04:33N 43°41' E 007°23'1312.8
2015-Jul-04 03:33N 43°34' E 007°09'0 0.1
2015-Jul-04 02:27N 43°34' E 007°08'0 0.0
2015-Jul-04 01:33N 43°34' E 007°08'0 0.0
2015-Jul-04 00:33N 43°34' E 007°08'0 0.0
2015-Jul-03 23:21N 43°34' E 007°08'0 0.0
2015-Jul-03 22:33N 43°34' E 007°08'0 0.0
2015-Jul-03 21:33N 43°34' E 007°08'0 0.0
2015-Jul-03 20:33N 43°34' E 007°08'0 0.0
2015-Jul-03 19:33N 43°34' E 007°08'0 0.0
2015-Jul-03 18:33N 43°34' E 007°08'0 0.0
2015-Jul-03 17:33N 43°34' E 007°08'2 1.8
2015-Jul-03 16:34N 43°35' E 007°08'0 0.0
2015-Jul-03 15:33N 43°35' E 007°08'0 0.0
2015-Jul-03 14:33N 43°35' E 007°08'0 0.0
2015-Jul-03 13:33N 43°35' E 007°08'0 0.0
2015-Jul-03 12:33N 43°35' E 007°08'0 0.0
2015-Jul-03 11:33N 43°35' E 007°08'0 0.0
2015-Jul-03 10:33N 43°35' E 007°08'3 3.4
2015-Jul-03 09:33N 43°38' E 007°10'1 0.8
2015-Jul-03 08:30N 43°39' E 007°11'0 0.0
2015-Jul-03 07:24N 43°39' E 007°11'0 0.0
2015-Jul-03 06:18N 43°39' E 007°11'2 2.3
2015-Jul-03 05:33N 43°37' E 007°11'1312.7
2015-Jul-03 04:33N 43°29' E 007°24'1312.7
2015-Jul-03 03:33N 43°20' E 007°37'1312.7
2015-Jul-03 02:33N 43°12' E 007°50'1312.8
2015-Jul-03 01:33N 43°03' E 008°03'1312.6
2015-Jul-03 00:33N 42°55' E 008°16'1212.4
2015-Jul-02 23:33N 42°47' E 008°30'1212.3
2015-Jul-02 22:33N 42°38' E 008°41'6 5.9
2015-Jul-02 21:33N 42°34' E 008°46'0 0.0
2015-Jul-02 20:33N 42°34' E 008°46'0 0.0
2015-Jul-02 19:33N 42°34' E 008°46'0 0.0
2015-Jul-02 15:24N 42°34' E 008°46'8 9.9
2015-Jul-02 14:33N 42°29' E 008°37'17 3.4
2015-Jul-02 09:33N 42°13' E 008°31'1514.5
2015-Jul-02 08:33N 41°58' E 008°31'101 3.7
2015-Jul-01 05:17N 41°03' E 010°25'5414.5
2015-Jul-01 01:33N 40°55' E 011°35'8014.5
2015-Jun-30 20:03N 40°43' E 013°20'714.5
2015-Jun-30 19:33N 40°44' E 013°29'1514.4
2015-Jun-30 18:33N 40°46' E 013°49'4 3.5
2015-Jun-30 17:30N 40°45' E 013°53'0 0.0
2015-Jun-30 16:30N 40°45' E 013°53'0 0.0
2015-Jun-30 15:30N 40°45' E 013°53'0 0.0
2015-Jun-30 14:30N 40°45' E 013°53'0 0.0
2015-Jun-30 13:30N 40°45' E 013°53'0 0.0
2015-Jun-30 12:30N 40°45' E 013°53'0 0.0
2015-Jun-30 11:21N 40°45' E 013°53'0 0.0
2015-Jun-30 10:30N 40°45' E 013°53'0 0.0
2015-Jun-30 09:30N 40°45' E 013°53'0 0.0
2015-Jun-30 08:33N 40°45' E 013°53'5 5.1
2015-Jun-30 07:33N 40°44' E 013°60'1414.4
2015-Jun-30 06:33N 40°36' E 014°15'9 0.5
2015-Jun-29 12:28N 40°35' E 014°27'9 0.6
2015-Jun-28 21:31N 40°33' E 014°15'0 0.0
2015-Jun-28 20:28N 40°33' E 014°15'0 0.0
2015-Jun-28 18:31N 40°33' E 014°15'0 0.0
2015-Jun-28 16:13N 40°33' E 014°15'0 0.2
2015-Jun-28 15:33N 40°33' E 014°15'1110.1
2015-Jun-28 14:31N 40°35' E 014°28'1 0.3
2015-Jun-28 09:30N 40°35' E 014°30'8 8.3
2015-Jun-28 08:32N 40°38' E 014°21'2 2.0
2015-Jun-28 07:31N 40°38' E 014°23'0 0.0
2015-Jun-28 04:31N 40°38' E 014°23'0 0.0
2015-Jun-28 00:22N 40°38' E 014°23'0 0.0
2015-Jun-27 23:28N 40°38' E 014°23'0 0.0
2015-Jun-27 22:22N 40°38' E 014°23'0 0.0
2015-Jun-27 20:25N 40°38' E 014°23'0 0.0
2015-Jun-27 18:31N 40°38' E 014°23'0 0.0
2015-Jun-27 14:31N 40°38' E 014°23'0 0.0
2015-Jun-27 13:10N 40°38' E 014°23'0 0.0
2015-Jun-27 12:31N 40°38' E 014°23'2 1.9
2015-Jun-27 11:33N 40°40' E 014°23'182 5.4
2015-Jun-26 01:33N 42°11' E 010°52'2014.1
2015-Jun-26 00:08N 42°24' E 010°32'1113.9
2015-Jun-25 23:20N 42°31' E 010°20'1213.9
2015-Jun-25 22:28N 42°39' E 010°07'1314.2
2015-Jun-25 21:33N 42°46' E 009°53'1514.2
2015-Jun-25 20:31N 42°56' E 009°37'1313.1
2015-Jun-25 19:33N 43°01' E 009°22'  

Dump ship's entire track history